Red Garnet — 9HA3899 — position and weather

sailwx.info

Track history (hours):
 
Tides and Currents Weather Stations Pressure Air Temp Water Temp Dewpoint Dewpoint Depression Visibility Wind Speed Wind Dir Waves Ship Positions

Red Garnet

Last reported at 2017-Dec-10 19:21 UTC. Time now 2017-Dec-11 17:25 UTC.
Position N 40°52' E 028°38'.

Length 183 m; draft 12.7 m.

Type: Ship (hazmat cat A). MMSI: 256391000.

Date/timePositionNaut miles runAvg speedWind from/ knotsBaromVisibWave heightAir tempDewpointWater temp
2017-Dec-10 19:21N 40°52' E 028°38'912.2
2017-Dec-10 18:38N 40°54' E 028°49'210.3
2017-Dec-10 18:24N 40°55' E 028°52'2 0.1
2017-Dec-09 22:15N 40°57' E 028°53'0 0.6
2017-Dec-09 21:58N 40°57' E 028°54'1 1.8
2017-Dec-09 21:25N 40°57' E 028°55'4 6.8
2017-Dec-09 20:54N 40°59' E 028°59'  
2017-Dec-06 22:01N 44°27' E 037°29'312.3
2017-Dec-06 21:48N 44°28' E 037°32'412.1
2017-Dec-06 21:29N 44°30' E 037°37'612.1
2017-Dec-06 21:00N 44°33' E 037°44'  
2017-Dec-04 10:30N 44°25' E 037°41'0 1.0
2017-Dec-04 10:00N 44°25' E 037°41'1 1.1
2017-Dec-04 09:30N 44°25' E 037°42'1 1.2
2017-Dec-04 09:00N 44°24' E 037°42'1 1.4
2017-Dec-04 08:30N 44°24' E 037°43'1 1.5
2017-Dec-04 08:00N 44°24' E 037°44'1 1.5
2017-Dec-04 07:29N 44°23' E 037°45'1 1.2
2017-Dec-04 07:00N 44°23' E 037°46'1 2.9
2017-Dec-04 06:30N 44°24' E 037°44'612.4
2017-Dec-04 06:00N 44°24' E 037°35'612.4
2017-Dec-04 05:30N 44°26' E 037°27'3 6.2
2017-Dec-04 04:59N 44°26' E 037°22'1 0.8
2017-Dec-04 03:57N 44°26' E 037°23'0 1.0
2017-Dec-04 03:30N 44°26' E 037°24'1 1.2
2017-Dec-04 03:00N 44°26' E 037°25'1 1.2
2017-Dec-04 02:30N 44°26' E 037°25'1 1.3
2017-Dec-04 01:58N 44°25' E 037°26'1 1.3
2017-Dec-04 01:30N 44°25' E 037°27'1 1.3
2017-Dec-04 00:59N 44°25' E 037°28'1 1.4
2017-Dec-04 00:24N 44°25' E 037°29'1 1.5
2017-Dec-03 23:59N 44°25' E 037°30'1 1.6
2017-Dec-03 23:30N 44°25' E 037°31'1 1.6
2017-Dec-03 22:59N 44°25' E 037°32'1 1.4
2017-Dec-03 22:29N 44°25' E 037°33'1 1.3
2017-Dec-03 22:00N 44°25' E 037°34'1 1.5
2017-Dec-03 21:30N 44°24' E 037°35'1 1.8
2017-Dec-03 21:00N 44°24' E 037°36'1 1.6
2017-Dec-03 20:30N 44°24' E 037°38'1 1.4
2017-Dec-03 20:00N 44°24' E 037°39'1 1.3
2017-Dec-03 19:30N 44°24' E 037°39'1 1.3
2017-Dec-03 18:59N 44°23' E 037°40'1 1.3
2017-Dec-03 18:28N 44°23' E 037°41'1 1.3
2017-Dec-03 17:57N 44°23' E 037°42'1 1.3
2017-Dec-03 17:16N 44°23' E 037°43'0 1.2
2017-Dec-03 17:00N 44°23' E 037°44'1 1.3
2017-Dec-03 16:30N 44°23' E 037°45'1 1.4
2017-Dec-03 15:56N 44°22' E 037°46'1 1.3
2017-Dec-03 15:29N 44°22' E 037°46'0 0.7
2017-Dec-03 15:00N 44°22' E 037°47'3 5.5
2017-Dec-03 14:30N 44°22' E 037°43'612.4
2017-Dec-03 14:00N 44°22' E 037°34'612.7
2017-Dec-03 13:30N 44°22' E 037°26'612.1
2017-Dec-03 13:00N 44°23' E 037°17'3 5.9
2017-Dec-03 12:30N 44°24' E 037°13'1 1.6
2017-Dec-03 12:00N 44°24' E 037°14'1 1.6
2017-Dec-03 11:30N 44°24' E 037°15'1 1.6
2017-Dec-03 11:00N 44°24' E 037°17'1 1.7
2017-Dec-03 10:30N 44°24' E 037°18'1 1.7
2017-Dec-03 10:00N 44°24' E 037°19'1 1.8
2017-Dec-03 09:30N 44°24' E 037°20'1 1.8
2017-Dec-03 09:00N 44°24' E 037°21'1 1.7
2017-Dec-03 08:30N 44°24' E 037°23'1 1.5
2017-Dec-03 08:00N 44°24' E 037°24'1 1.5
2017-Dec-03 07:30N 44°23' E 037°25'1 1.6
2017-Dec-03 07:00N 44°23' E 037°26'1 1.7
2017-Dec-03 06:30N 44°23' E 037°27'1 1.6
2017-Dec-03 06:00N 44°23' E 037°28'2 3.6
2017-Dec-03 05:30N 44°22' E 037°30'2 3.1
2017-Dec-03 05:00N 44°23' E 037°30'1 1.3
2017-Dec-03 04:29N 44°23' E 037°31'1 1.4
2017-Dec-03 04:01N 44°23' E 037°32'1 1.4
2017-Dec-03 03:30N 44°22' E 037°33'1 1.4
2017-Dec-03 03:00N 44°22' E 037°34'1 1.5
2017-Dec-03 02:30N 44°22' E 037°35'1 1.3
2017-Dec-03 02:00N 44°23' E 037°36'1 1.1
2017-Dec-03 01:29N 44°23' E 037°37'1 1.1
2017-Dec-03 01:00N 44°23' E 037°37'0 0.9
2017-Dec-03 00:28N 44°23' E 037°38'1 0.9
2017-Dec-02 23:54N 44°22' E 037°39'2 1.0
2017-Dec-02 22:23N 44°22' E 037°41'0 1.1
2017-Dec-02 22:00N 44°22' E 037°41'1 1.2
2017-Dec-02 20:59N 44°21' E 037°43'1918.6
2017-Dec-02 19:57N 44°35' E 038°01'0 0.0
2017-Dec-02 19:30N 44°35' E 038°01'0 0.0
2017-Dec-02 19:00N 44°35' E 038°01'0 0.0
2017-Dec-02 18:30N 44°35' E 038°01'1835.9
2017-Dec-02 18:01N 44°20' E 037°48'3 6.7
2017-Dec-02 17:30N 44°20' E 037°43'611.8
2017-Dec-02 17:00N 44°20' E 037°35'713.0
2017-Dec-02 16:28N 44°18' E 037°25'612.7
2017-Dec-02 16:00N 44°19' E 037°17'812.8
2017-Dec-02 15:24N 44°20' E 037°07'612.6
2017-Dec-02 14:53N 44°22' E 036°58'411.0
2017-Dec-02 14:30N 44°22' E 036°52'0 0.9
2017-Dec-02 13:57N 44°23' E 036°51'1 1.6
2017-Dec-02 13:30N 44°23' E 036°52'1 1.6
2017-Dec-02 12:50N 44°23' E 036°54'0 1.5
2017-Dec-02 12:30N 44°23' E 036°55'1 1.4
2017-Dec-02 12:00N 44°23' E 036°56'1 1.5
2017-Dec-02 11:29N 44°22' E 036°57'1 1.5
2017-Dec-02 10:56N 44°22' E 036°58'1 1.4
2017-Dec-02 10:30N 44°22' E 036°59'4 1.5
2017-Dec-02 08:01N 44°21' E 037°04'0 1.6
2017-Dec-02 07:53N 44°21' E 037°04'1 1.5
2017-Dec-02 07:28N 44°21' E 037°05'1 1.6
2017-Dec-02 07:00N 44°20' E 037°06'1 1.6
2017-Dec-02 06:30N 44°20' E 037°07'1 1.6
2017-Dec-02 05:57N 44°20' E 037°08'1 1.6
2017-Dec-02 05:28N 44°20' E 037°09'1 1.7
2017-Dec-02 04:50N 44°19' E 037°10'3 1.8
2017-Dec-02 03:03N 44°19' E 037°15'2 1.8
2017-Dec-02 02:00N 44°18' E 037°17'1 1.6
2017-Dec-02 01:07N 44°18' E 037°19'0 1.7
2017-Dec-02 00:56N 44°18' E 037°19'1 1.7
2017-Dec-02 00:30N 44°18' E 037°20'1 1.9
2017-Dec-01 23:53N 44°17' E 037°22'1 1.9
2017-Dec-01 23:29N 44°17' E 037°23'2 1.9
2017-Dec-01 22:41N 44°17' E 037°25'0 1.9
2017-Dec-01 22:27N 44°16' E 037°26'2 1.9
2017-Dec-01 21:13N 44°16' E 037°29'5 1.8
2017-Dec-01 18:38N 44°17' E 037°35'0 1.6
2017-Dec-01 18:30N 44°17' E 037°36'1 1.5
2017-Dec-01 17:54N 44°17' E 037°37'1 1.4
2017-Dec-01 17:27N 44°17' E 037°38'1 1.3
2017-Dec-01 16:52N 44°16' E 037°39'1 1.5
2017-Dec-01 16:30N 44°16' E 037°40'1 2.2
2017-Dec-01 16:00N 44°17' E 037°40'5 9.5
2017-Dec-01 15:30N 44°22' E 037°41'510.5
2017-Dec-01 15:00N 44°27' E 037°41'1 1.4
2017-Dec-01 14:30N 44°28' E 037°40'1 1.7
2017-Dec-01 14:00N 44°27' E 037°40'1 1.7
2017-Dec-01 13:30N 44°26' E 037°40'1 1.8
2017-Dec-01 13:00N 44°25' E 037°40'1 1.8
2017-Dec-01 12:30N 44°24' E 037°40'1 1.9
2017-Dec-01 12:00N 44°23' E 037°40'1 2.1
2017-Dec-01 11:30N 44°22' E 037°40'1 1.9
2017-Dec-01 11:00N 44°21' E 037°40'2 4.8
2017-Dec-01 10:30N 44°21' E 037°36'510.7
2017-Dec-01 10:00N 44°22' E 037°29'712.0
2017-Dec-01 09:27N 44°20' E 037°20'  
Track history (hours):
 
Tides and Currents Weather Stations Pressure Air Temp Water Temp Dewpoint Dewpoint Depression Visibility Wind Speed Wind Dir Waves Ship Positions

Red Garnet

Last reported at 2017-Dec-10 19:21 UTC. Time now 2017-Dec-11 17:25 UTC.
Position N 40°52' E 028°38'.

Length 183 m; draft 12.7 m.

Type: Ship (hazmat cat A). MMSI: 256391000.

Date/timePositionNaut miles runAvg speedWind from/ knotsBaromVisibWave heightAir tempDewpointWater temp
2017-Dec-10 19:21N 40°52' E 028°38'912.2
2017-Dec-10 18:38N 40°54' E 028°49'210.3
2017-Dec-10 18:24N 40°55' E 028°52'2 0.1
2017-Dec-09 22:15N 40°57' E 028°53'0 0.6
2017-Dec-09 21:58N 40°57' E 028°54'1 1.8
2017-Dec-09 21:25N 40°57' E 028°55'4 6.8
2017-Dec-09 20:54N 40°59' E 028°59'  
2017-Dec-06 22:01N 44°27' E 037°29'312.3
2017-Dec-06 21:48N 44°28' E 037°32'412.1
2017-Dec-06 21:29N 44°30' E 037°37'612.1
2017-Dec-06 21:00N 44°33' E 037°44'  
2017-Dec-04 10:30N 44°25' E 037°41'0 1.0
2017-Dec-04 10:00N 44°25' E 037°41'1 1.1
2017-Dec-04 09:30N 44°25' E 037°42'1 1.2
2017-Dec-04 09:00N 44°24' E 037°42'1 1.4
2017-Dec-04 08:30N 44°24' E 037°43'1 1.5
2017-Dec-04 08:00N 44°24' E 037°44'1 1.5
2017-Dec-04 07:29N 44°23' E 037°45'1 1.2
2017-Dec-04 07:00N 44°23' E 037°46'1 2.9
2017-Dec-04 06:30N 44°24' E 037°44'612.4
2017-Dec-04 06:00N 44°24' E 037°35'612.4
2017-Dec-04 05:30N 44°26' E 037°27'3 6.2
2017-Dec-04 04:59N 44°26' E 037°22'1 0.8
2017-Dec-04 03:57N 44°26' E 037°23'0 1.0
2017-Dec-04 03:30N 44°26' E 037°24'1 1.2
2017-Dec-04 03:00N 44°26' E 037°25'1 1.2
2017-Dec-04 02:30N 44°26' E 037°25'1 1.3
2017-Dec-04 01:58N 44°25' E 037°26'1 1.3
2017-Dec-04 01:30N 44°25' E 037°27'1 1.3
2017-Dec-04 00:59N 44°25' E 037°28'1 1.4
2017-Dec-04 00:24N 44°25' E 037°29'1 1.5
2017-Dec-03 23:59N 44°25' E 037°30'1 1.6
2017-Dec-03 23:30N 44°25' E 037°31'1 1.6
2017-Dec-03 22:59N 44°25' E 037°32'1 1.4
2017-Dec-03 22:29N 44°25' E 037°33'1 1.3
2017-Dec-03 22:00N 44°25' E 037°34'1 1.5
2017-Dec-03 21:30N 44°24' E 037°35'1 1.8
2017-Dec-03 21:00N 44°24' E 037°36'1 1.6
2017-Dec-03 20:30N 44°24' E 037°38'1 1.4
2017-Dec-03 20:00N 44°24' E 037°39'1 1.3
2017-Dec-03 19:30N 44°24' E 037°39'1 1.3
2017-Dec-03 18:59N 44°23' E 037°40'1 1.3
2017-Dec-03 18:28N 44°23' E 037°41'1 1.3
2017-Dec-03 17:57N 44°23' E 037°42'1 1.3
2017-Dec-03 17:16N 44°23' E 037°43'0 1.2
2017-Dec-03 17:00N 44°23' E 037°44'1 1.3
2017-Dec-03 16:30N 44°23' E 037°45'1 1.4
2017-Dec-03 15:56N 44°22' E 037°46'1 1.3
2017-Dec-03 15:29N 44°22' E 037°46'0 0.7
2017-Dec-03 15:00N 44°22' E 037°47'3 5.5
2017-Dec-03 14:30N 44°22' E 037°43'612.4
2017-Dec-03 14:00N 44°22' E 037°34'612.7
2017-Dec-03 13:30N 44°22' E 037°26'612.1
2017-Dec-03 13:00N 44°23' E 037°17'3 5.9
2017-Dec-03 12:30N 44°24' E 037°13'1 1.6
2017-Dec-03 12:00N 44°24' E 037°14'1 1.6
2017-Dec-03 11:30N 44°24' E 037°15'1 1.6
2017-Dec-03 11:00N 44°24' E 037°17'1 1.7
2017-Dec-03 10:30N 44°24' E 037°18'1 1.7
2017-Dec-03 10:00N 44°24' E 037°19'1 1.8
2017-Dec-03 09:30N 44°24' E 037°20'1 1.8
2017-Dec-03 09:00N 44°24' E 037°21'1 1.7
2017-Dec-03 08:30N 44°24' E 037°23'1 1.5
2017-Dec-03 08:00N 44°24' E 037°24'1 1.5
2017-Dec-03 07:30N 44°23' E 037°25'1 1.6
2017-Dec-03 07:00N 44°23' E 037°26'1 1.7
2017-Dec-03 06:30N 44°23' E 037°27'1 1.6
2017-Dec-03 06:00N 44°23' E 037°28'2 3.6
2017-Dec-03 05:30N 44°22' E 037°30'2 3.1
2017-Dec-03 05:00N 44°23' E 037°30'1 1.3
2017-Dec-03 04:29N 44°23' E 037°31'1 1.4
2017-Dec-03 04:01N 44°23' E 037°32'1 1.4
2017-Dec-03 03:30N 44°22' E 037°33'1 1.4
2017-Dec-03 03:00N 44°22' E 037°34'1 1.5
2017-Dec-03 02:30N 44°22' E 037°35'1 1.3
2017-Dec-03 02:00N 44°23' E 037°36'1 1.1
2017-Dec-03 01:29N 44°23' E 037°37'1 1.1
2017-Dec-03 01:00N 44°23' E 037°37'0 0.9
2017-Dec-03 00:28N 44°23' E 037°38'1 0.9
2017-Dec-02 23:54N 44°22' E 037°39'2 1.0
2017-Dec-02 22:23N 44°22' E 037°41'0 1.1
2017-Dec-02 22:00N 44°22' E 037°41'1 1.2
2017-Dec-02 20:59N 44°21' E 037°43'1918.6
2017-Dec-02 19:57N 44°35' E 038°01'0 0.0
2017-Dec-02 19:30N 44°35' E 038°01'0 0.0
2017-Dec-02 19:00N 44°35' E 038°01'0 0.0
2017-Dec-02 18:30N 44°35' E 038°01'1835.9
2017-Dec-02 18:01N 44°20' E 037°48'3 6.7
2017-Dec-02 17:30N 44°20' E 037°43'611.8
2017-Dec-02 17:00N 44°20' E 037°35'713.0
2017-Dec-02 16:28N 44°18' E 037°25'612.7
2017-Dec-02 16:00N 44°19' E 037°17'812.8
2017-Dec-02 15:24N 44°20' E 037°07'612.6
2017-Dec-02 14:53N 44°22' E 036°58'411.0
2017-Dec-02 14:30N 44°22' E 036°52'0 0.9
2017-Dec-02 13:57N 44°23' E 036°51'1 1.6
2017-Dec-02 13:30N 44°23' E 036°52'1 1.6
2017-Dec-02 12:50N 44°23' E 036°54'0 1.5
2017-Dec-02 12:30N 44°23' E 036°55'1 1.4
2017-Dec-02 12:00N 44°23' E 036°56'1 1.5
2017-Dec-02 11:29N 44°22' E 036°57'1 1.5
2017-Dec-02 10:56N 44°22' E 036°58'1 1.4
2017-Dec-02 10:30N 44°22' E 036°59'4 1.5
2017-Dec-02 08:01N 44°21' E 037°04'0 1.6
2017-Dec-02 07:53N 44°21' E 037°04'1 1.5
2017-Dec-02 07:28N 44°21' E 037°05'1 1.6
2017-Dec-02 07:00N 44°20' E 037°06'1 1.6
2017-Dec-02 06:30N 44°20' E 037°07'1 1.6
2017-Dec-02 05:57N 44°20' E 037°08'1 1.6
2017-Dec-02 05:28N 44°20' E 037°09'1 1.7
2017-Dec-02 04:50N 44°19' E 037°10'3 1.8
2017-Dec-02 03:03N 44°19' E 037°15'2 1.8
2017-Dec-02 02:00N 44°18' E 037°17'1 1.6
2017-Dec-02 01:07N 44°18' E 037°19'0 1.7
2017-Dec-02 00:56N 44°18' E 037°19'1 1.7
2017-Dec-02 00:30N 44°18' E 037°20'1 1.9
2017-Dec-01 23:53N 44°17' E 037°22'1 1.9
2017-Dec-01 23:29N 44°17' E 037°23'2 1.9
2017-Dec-01 22:41N 44°17' E 037°25'0 1.9
2017-Dec-01 22:27N 44°16' E 037°26'2 1.9
2017-Dec-01 21:13N 44°16' E 037°29'5 1.8
2017-Dec-01 18:38N 44°17' E 037°35'0 1.6
2017-Dec-01 18:30N 44°17' E 037°36'1 1.5
2017-Dec-01 17:54N 44°17' E 037°37'1 1.4
2017-Dec-01 17:27N 44°17' E 037°38'1 1.3
2017-Dec-01 16:52N 44°16' E 037°39'1 1.5
2017-Dec-01 16:30N 44°16' E 037°40'1 2.2
2017-Dec-01 16:00N 44°17' E 037°40'5 9.5
2017-Dec-01 15:30N 44°22' E 037°41'510.5
2017-Dec-01 15:00N 44°27' E 037°41'1 1.4
2017-Dec-01 14:30N 44°28' E 037°40'1 1.7
2017-Dec-01 14:00N 44°27' E 037°40'1 1.7
2017-Dec-01 13:30N 44°26' E 037°40'1 1.8
2017-Dec-01 13:00N 44°25' E 037°40'1 1.8
2017-Dec-01 12:30N 44°24' E 037°40'1 1.9
2017-Dec-01 12:00N 44°23' E 037°40'1 2.1
2017-Dec-01 11:30N 44°22' E 037°40'1 1.9
2017-Dec-01 11:00N 44°21' E 037°40'2 4.8
2017-Dec-01 10:30N 44°21' E 037°36'510.7
2017-Dec-01 10:00N 44°22' E 037°29'712.0
2017-Dec-01 09:27N 44°20' E 037°20'  

Dump ship's entire track history